sensor_id;sensor_type;location;lat;lon;timestamp;P1;durP1;ratioP1;P2;durP2;ratioP2
51499;SDS011;39101;53.478;6.158;2022-07-06T00:00:32;6.88;;;1.20;;
51499;SDS011;39101;53.478;6.158;2022-07-06T00:02:58;8.77;;;0.80;;
51499;SDS011;39101;53.478;6.158;2022-07-06T00:05:24;6.18;;;1.00;;
51499;SDS011;39101;53.478;6.158;2022-07-06T00:07:50;9.10;;;1.73;;
51499;SDS011;39101;53.478;6.158;2022-07-06T00:10:16;4.78;;;1.02;;
51499;SDS011;39101;53.478;6.158;2022-07-06T00:12:41;6.55;;;1.27;;
51499;SDS011;39101;53.478;6.158;2022-07-06T00:15:07;8.85;;;2.15;;
51499;SDS011;39101;53.478;6.158;2022-07-06T00:17:33;10.65;;;1.52;;
51499;SDS011;39101;53.478;6.158;2022-07-06T00:19:59;6.47;;;1.48;;
51499;SDS011;39101;53.478;6.158;2022-07-06T00:22:25;9.88;;;1.92;;
51499;SDS011;39101;53.478;6.158;2022-07-06T00:24:50;6.35;;;1.05;;
51499;SDS011;39101;53.478;6.158;2022-07-06T00:27:16;11.15;;;1.60;;
51499;SDS011;39101;53.478;6.158;2022-07-06T00:29:42;7.88;;;1.33;;
51499;SDS011;39101;53.478;6.158;2022-07-06T00:32:10;11.95;;;1.73;;
51499;SDS011;39101;53.478;6.158;2022-07-06T00:34:36;6.95;;;1.50;;
51499;SDS011;39101;53.478;6.158;2022-07-06T00:37:04;7.30;;;1.40;;
51499;SDS011;39101;53.478;6.158;2022-07-06T00:39:31;7.25;;;0.93;;
51499;SDS011;39101;53.478;6.158;2022-07-06T00:41:57;7.30;;;1.52;;
51499;SDS011;39101;53.478;6.158;2022-07-06T00:44:23;6.03;;;1.20;;
51499;SDS011;39101;53.478;6.158;2022-07-06T00:46:49;9.15;;;1.13;;
51499;SDS011;39101;53.478;6.158;2022-07-06T00:49:15;7.95;;;1.17;;
51499;SDS011;39101;53.478;6.158;2022-07-06T00:51:59;7.25;;;1.48;;
51499;SDS011;39101;53.478;6.158;2022-07-06T00:54:26;8.32;;;1.98;;
51499;SDS011;39101;53.478;6.158;2022-07-06T00:56:55;8.20;;;1.48;;
51499;SDS011;39101;53.478;6.158;2022-07-06T00:59:20;5.40;;;1.85;;
51499;SDS011;39101;53.478;6.158;2022-07-06T01:01:47;6.72;;;1.20;;
51499;SDS011;39101;53.478;6.158;2022-07-06T01:04:13;4.88;;;1.08;;
51499;SDS011;39101;53.478;6.158;2022-07-06T01:06:38;4.97;;;1.13;;
51499;SDS011;39101;53.478;6.158;2022-07-06T01:09:04;8.75;;;1.25;;
51499;SDS011;39101;53.478;6.158;2022-07-06T01:11:30;4.35;;;1.20;;
51499;SDS011;39101;53.478;6.158;2022-07-06T01:13:56;5.57;;;1.40;;
51499;SDS011;39101;53.478;6.158;2022-07-06T01:16:22;6.60;;;1.20;;
51499;SDS011;39101;53.478;6.158;2022-07-06T01:18:48;8.95;;;0.90;;
51499;SDS011;39101;53.478;6.158;2022-07-06T01:21:14;6.38;;;1.30;;
51499;SDS011;39101;53.478;6.158;2022-07-06T01:23:41;5.70;;;1.10;;
51499;SDS011;39101;53.478;6.158;2022-07-06T01:26:09;9.75;;;1.88;;
51499;SDS011;39101;53.478;6.158;2022-07-06T01:28:35;8.77;;;1.20;;
51499;SDS011;39101;53.478;6.158;2022-07-06T01:31:01;10.05;;;2.30;;
51499;SDS011;39101;53.478;6.158;2022-07-06T01:33:27;8.68;;;1.25;;
51499;SDS011;39101;53.478;6.158;2022-07-06T01:35:52;6.13;;;1.10;;
51499;SDS011;39101;53.478;6.158;2022-07-06T01:38:18;7.65;;;0.90;;
51499;SDS011;39101;53.478;6.158;2022-07-06T01:40:44;6.90;;;1.38;;
51499;SDS011;39101;53.478;6.158;2022-07-06T01:43:10;8.75;;;1.40;;
51499;SDS011;39101;53.478;6.158;2022-07-06T01:45:35;5.57;;;1.70;;
51499;SDS011;39101;53.478;6.158;2022-07-06T01:48:04;10.88;;;1.42;;
51499;SDS011;39101;53.478;6.158;2022-07-06T01:50:31;4.88;;;0.90;;
51499;SDS011;39101;53.478;6.158;2022-07-06T01:52:59;7.13;;;1.10;;
51499;SDS011;39101;53.478;6.158;2022-07-06T01:55:25;8.05;;;1.25;;
51499;SDS011;39101;53.478;6.158;2022-07-06T01:57:50;3.38;;;0.80;;
51499;SDS011;39101;53.478;6.158;2022-07-06T02:00:16;7.85;;;1.20;;
51499;SDS011;39101;53.478;6.158;2022-07-06T02:02:42;11.10;;;1.00;;
51499;SDS011;39101;53.478;6.158;2022-07-06T02:05:07;7.70;;;1.05;;
51499;SDS011;39101;53.478;6.158;2022-07-06T02:07:33;3.95;;;0.85;;
51499;SDS011;39101;53.478;6.158;2022-07-06T02:09:59;4.07;;;0.80;;
51499;SDS011;39101;53.478;6.158;2022-07-06T02:12:24;8.27;;;0.98;;
51499;SDS011;39101;53.478;6.158;2022-07-06T02:14:50;4.78;;;1.08;;
51499;SDS011;39101;53.478;6.158;2022-07-06T02:17:16;5.53;;;1.23;;
51499;SDS011;39101;53.478;6.158;2022-07-06T02:19:42;7.88;;;1.27;;
51499;SDS011;39101;53.478;6.158;2022-07-06T02:22:07;5.57;;;1.65;;
51499;SDS011;39101;53.478;6.158;2022-07-06T02:24:33;6.82;;;1.10;;
51499;SDS011;39101;53.478;6.158;2022-07-06T02:26:59;4.50;;;1.10;;
51499;SDS011;39101;53.478;6.158;2022-07-06T02:29:24;6.57;;;0.82;;
51499;SDS011;39101;53.478;6.158;2022-07-06T02:31:51;3.95;;;1.05;;
51499;SDS011;39101;53.478;6.158;2022-07-06T02:34:16;7.53;;;1.23;;
51499;SDS011;39101;53.478;6.158;2022-07-06T02:36:42;5.90;;;0.95;;
51499;SDS011;39101;53.478;6.158;2022-07-06T02:39:07;4.05;;;0.93;;
51499;SDS011;39101;53.478;6.158;2022-07-06T02:41:33;10.80;;;1.70;;
51499;SDS011;39101;53.478;6.158;2022-07-06T02:43:59;5.60;;;0.77;;
51499;SDS011;39101;53.478;6.158;2022-07-06T02:46:24;4.90;;;0.93;;
51499;SDS011;39101;53.478;6.158;2022-07-06T02:48:50;4.07;;;0.90;;
51499;SDS011;39101;53.478;6.158;2022-07-06T02:51:16;5.93;;;1.17;;
51499;SDS011;39101;53.478;6.158;2022-07-06T02:53:42;5.97;;;1.00;;
51499;SDS011;39101;53.478;6.158;2022-07-06T02:56:07;7.25;;;1.20;;
51499;SDS011;39101;53.478;6.158;2022-07-06T02:58:33;4.15;;;0.80;;
51499;SDS011;39101;53.478;6.158;2022-07-06T03:00:59;7.80;;;0.90;;
51499;SDS011;39101;53.478;6.158;2022-07-06T03:03:25;4.38;;;0.85;;
51499;SDS011;39101;53.478;6.158;2022-07-06T03:05:50;8.73;;;1.00;;
51499;SDS011;39101;53.478;6.158;2022-07-06T03:08:16;6.53;;;1.50;;
51499;SDS011;39101;53.478;6.158;2022-07-06T03:10:42;5.75;;;0.80;;
51499;SDS011;39101;53.478;6.158;2022-07-06T03:13:08;3.08;;;0.93;;
51499;SDS011;39101;53.478;6.158;2022-07-06T03:15:33;5.15;;;0.77;;
51499;SDS011;39101;53.478;6.158;2022-07-06T03:17:59;7.85;;;1.05;;
51499;SDS011;39101;53.478;6.158;2022-07-06T03:20:25;4.15;;;0.60;;
51499;SDS011;39101;53.478;6.158;2022-07-06T03:22:50;6.45;;;1.13;;
51499;SDS011;39101;53.478;6.158;2022-07-06T03:25:16;7.75;;;1.10;;
51499;SDS011;39101;53.478;6.158;2022-07-06T03:27:41;10.15;;;1.30;;
51499;SDS011;39101;53.478;6.158;2022-07-06T03:30:07;12.45;;;1.40;;
51499;SDS011;39101;53.478;6.158;2022-07-06T03:32:33;6.90;;;1.08;;
51499;SDS011;39101;53.478;6.158;2022-07-06T03:34:59;9.52;;;1.35;;
51499;SDS011;39101;53.478;6.158;2022-07-06T03:37:24;7.35;;;1.10;;
51499;SDS011;39101;53.478;6.158;2022-07-06T03:39:50;5.35;;;1.17;;
51499;SDS011;39101;53.478;6.158;2022-07-06T03:42:16;7.07;;;1.23;;
51499;SDS011;39101;53.478;6.158;2022-07-06T03:44:41;3.35;;;0.85;;
51499;SDS011;39101;53.478;6.158;2022-07-06T03:47:07;4.32;;;0.90;;
51499;SDS011;39101;53.478;6.158;2022-07-06T03:49:32;2.80;;;0.80;;
51499;SDS011;39101;53.478;6.158;2022-07-06T03:51:58;4.82;;;0.93;;
51499;SDS011;39101;53.478;6.158;2022-07-06T03:54:24;5.53;;;1.00;;
51499;SDS011;39101;53.478;6.158;2022-07-06T03:56:49;7.20;;;0.98;;
51499;SDS011;39101;53.478;6.158;2022-07-06T03:59:15;2.92;;;0.60;;
51499;SDS011;39101;53.478;6.158;2022-07-06T04:01:41;3.92;;;0.60;;
51499;SDS011;39101;53.478;6.158;2022-07-06T04:04:07;5.72;;;0.70;;
51499;SDS011;39101;53.478;6.158;2022-07-06T04:06:32;8.55;;;1.38;;
51499;SDS011;39101;53.478;6.158;2022-07-06T04:08:59;5.45;;;0.80;;
51499;SDS011;39101;53.478;6.158;2022-07-06T04:11:25;3.58;;;0.95;;
51499;SDS011;39101;53.478;6.158;2022-07-06T04:13:51;5.32;;;0.98;;
51499;SDS011;39101;53.478;6.158;2022-07-06T04:16:16;6.05;;;1.38;;
51499;SDS011;39101;53.478;6.158;2022-07-06T04:18:42;4.93;;;0.60;;
51499;SDS011;39101;53.478;6.158;2022-07-06T04:21:08;5.78;;;0.70;;
51499;SDS011;39101;53.478;6.158;2022-07-06T04:23:33;4.05;;;1.05;;
51499;SDS011;39101;53.478;6.158;2022-07-06T04:25:59;7.65;;;0.98;;
51499;SDS011;39101;53.478;6.158;2022-07-06T04:28:25;3.28;;;0.90;;
51499;SDS011;39101;53.478;6.158;2022-07-06T04:30:50;3.75;;;0.80;;
51499;SDS011;39101;53.478;6.158;2022-07-06T04:33:16;8.27;;;0.82;;
51499;SDS011;39101;53.478;6.158;2022-07-06T04:35:42;9.85;;;1.27;;
51499;SDS011;39101;53.478;6.158;2022-07-06T04:38:08;7.97;;;1.20;;
51499;SDS011;39101;53.478;6.158;2022-07-06T04:40:33;6.25;;;1.10;;
51499;SDS011;39101;53.478;6.158;2022-07-06T04:42:59;5.88;;;1.17;;
51499;SDS011;39101;53.478;6.158;2022-07-06T04:45:25;5.20;;;0.82;;
51499;SDS011;39101;53.478;6.158;2022-07-06T04:47:51;8.23;;;1.38;;
51499;SDS011;39101;53.478;6.158;2022-07-06T04:50:16;8.07;;;1.30;;
51499;SDS011;39101;53.478;6.158;2022-07-06T04:52:42;5.22;;;1.20;;
51499;SDS011;39101;53.478;6.158;2022-07-06T04:55:08;9.68;;;0.95;;
51499;SDS011;39101;53.478;6.158;2022-07-06T04:57:35;5.60;;;0.73;;
51499;SDS011;39101;53.478;6.158;2022-07-06T05:00:01;4.78;;;0.85;;
51499;SDS011;39101;53.478;6.158;2022-07-06T05:02:28;6.50;;;0.73;;
51499;SDS011;39101;53.478;6.158;2022-07-06T05:04:54;7.72;;;1.20;;
51499;SDS011;39101;53.478;6.158;2022-07-06T05:07:20;6.38;;;0.88;;
51499;SDS011;39101;53.478;6.158;2022-07-06T05:09:45;3.90;;;0.70;;
51499;SDS011;39101;53.478;6.158;2022-07-06T05:12:11;7.90;;;1.25;;
51499;SDS011;39101;53.478;6.158;2022-07-06T05:14:37;3.78;;;0.70;;
51499;SDS011;39101;53.478;6.158;2022-07-06T05:17:02;3.58;;;1.10;;
51499;SDS011;39101;53.478;6.158;2022-07-06T05:19:28;6.03;;;0.98;;
51499;SDS011;39101;53.478;6.158;2022-07-06T05:21:54;5.53;;;0.90;;
51499;SDS011;39101;53.478;6.158;2022-07-06T05:24:19;5.78;;;1.10;;
51499;SDS011;39101;53.478;6.158;2022-07-06T05:26:45;4.32;;;1.65;;
51499;SDS011;39101;53.478;6.158;2022-07-06T05:29:11;6.30;;;1.20;;
51499;SDS011;39101;53.478;6.158;2022-07-06T05:31:37;5.07;;;1.10;;
51499;SDS011;39101;53.478;6.158;2022-07-06T05:34:03;4.45;;;0.80;;
51499;SDS011;39101;53.478;6.158;2022-07-06T05:36:28;5.60;;;1.10;;
51499;SDS011;39101;53.478;6.158;2022-07-06T05:38:54;6.63;;;0.73;;
51499;SDS011;39101;53.478;6.158;2022-07-06T05:41:20;6.07;;;1.35;;
51499;SDS011;39101;53.478;6.158;2022-07-06T05:43:45;6.05;;;0.80;;
51499;SDS011;39101;53.478;6.158;2022-07-06T05:46:11;6.18;;;0.70;;
51499;SDS011;39101;53.478;6.158;2022-07-06T05:48:37;4.50;;;1.00;;
51499;SDS011;39101;53.478;6.158;2022-07-06T05:51:21;2.75;;;0.77;;
51499;SDS011;39101;53.478;6.158;2022-07-06T05:53:46;6.43;;;0.95;;
51499;SDS011;39101;53.478;6.158;2022-07-06T05:56:13;6.80;;;1.00;;
51499;SDS011;39101;53.478;6.158;2022-07-06T05:58:38;4.80;;;0.65;;
51499;SDS011;39101;53.478;6.158;2022-07-06T06:01:04;4.22;;;0.80;;
51499;SDS011;39101;53.478;6.158;2022-07-06T06:03:32;6.47;;;1.20;;
51499;SDS011;39101;53.478;6.158;2022-07-06T06:05:58;6.10;;;1.17;;
51499;SDS011;39101;53.478;6.158;2022-07-06T06:08:24;5.90;;;0.70;;
51499;SDS011;39101;53.478;6.158;2022-07-06T06:10:50;8.57;;;1.13;;
51499;SDS011;39101;53.478;6.158;2022-07-06T06:13:15;4.45;;;0.85;;
51499;SDS011;39101;53.478;6.158;2022-07-06T06:15:41;4.25;;;0.77;;
51499;SDS011;39101;53.478;6.158;2022-07-06T06:18:07;4.38;;;0.95;;
51499;SDS011;39101;53.478;6.158;2022-07-06T06:20:32;8.40;;;1.10;;
51499;SDS011;39101;53.478;6.158;2022-07-06T06:22:58;5.43;;;1.00;;
51499;SDS011;39101;53.478;6.158;2022-07-06T06:27:54;3.58;;;0.80;;
51499;SDS011;39101;53.478;6.158;2022-07-06T06:30:20;4.70;;;1.25;;
51499;SDS011;39101;53.478;6.158;2022-07-06T06:32:45;3.90;;;0.80;;
51499;SDS011;39101;53.478;6.158;2022-07-06T06:35:11;4.78;;;0.73;;
51499;SDS011;39101;53.478;6.158;2022-07-06T06:37:37;7.75;;;0.80;;
51499;SDS011;39101;53.478;6.158;2022-07-06T06:40:03;5.82;;;0.70;;
51499;SDS011;39101;53.478;6.158;2022-07-06T06:42:30;5.03;;;0.55;;
51499;SDS011;39101;53.478;6.158;2022-07-06T06:44:57;5.85;;;1.27;;
51499;SDS011;39101;53.478;6.158;2022-07-06T06:47:22;4.13;;;0.82;;
51499;SDS011;39101;53.478;6.158;2022-07-06T06:49:48;5.93;;;0.55;;
51499;SDS011;39101;53.478;6.158;2022-07-06T06:52:14;5.13;;;0.60;;
51499;SDS011;39101;53.478;6.158;2022-07-06T06:54:40;7.65;;;0.93;;
51499;SDS011;39101;53.478;6.158;2022-07-06T06:57:05;8.85;;;0.75;;
51499;SDS011;39101;53.478;6.158;2022-07-06T06:59:31;5.20;;;0.80;;
51499;SDS011;39101;53.478;6.158;2022-07-06T07:01:57;7.70;;;0.95;;
51499;SDS011;39101;53.478;6.158;2022-07-06T07:04:22;5.93;;;1.83;;
51499;SDS011;39101;53.478;6.158;2022-07-06T07:06:48;5.80;;;1.10;;
51499;SDS011;39101;53.478;6.158;2022-07-06T07:09:14;2.58;;;0.52;;
51499;SDS011;39101;53.478;6.158;2022-07-06T07:11:39;5.30;;;1.40;;
51499;SDS011;39101;53.478;6.158;2022-07-06T07:14:05;3.63;;;0.60;;
51499;SDS011;39101;53.478;6.158;2022-07-06T07:16:31;5.88;;;0.73;;
51499;SDS011;39101;53.478;6.158;2022-07-06T07:18:56;5.97;;;0.80;;
51499;SDS011;39101;53.478;6.158;2022-07-06T07:21:22;2.28;;;0.50;;
51499;SDS011;39101;53.478;6.158;2022-07-06T07:23:48;6.20;;;0.65;;
51499;SDS011;39101;53.478;6.158;2022-07-06T07:26:15;3.47;;;0.70;;
51499;SDS011;39101;53.478;6.158;2022-07-06T07:28:41;5.03;;;1.05;;
51499;SDS011;39101;53.478;6.158;2022-07-06T07:31:07;4.97;;;0.88;;
51499;SDS011;39101;53.478;6.158;2022-07-06T07:33:33;7.05;;;1.38;;
51499;SDS011;39101;53.478;6.158;2022-07-06T07:35:59;4.53;;;0.98;;
51499;SDS011;39101;53.478;6.158;2022-07-06T07:38:25;5.95;;;0.60;;
51499;SDS011;39101;53.478;6.158;2022-07-06T07:40:53;5.57;;;0.63;;
51499;SDS011;39101;53.478;6.158;2022-07-06T07:43:19;5.53;;;0.82;;
51499;SDS011;39101;53.478;6.158;2022-07-06T07:45:45;3.88;;;0.85;;
51499;SDS011;39101;53.478;6.158;2022-07-06T07:48:12;3.08;;;0.57;;
51499;SDS011;39101;53.478;6.158;2022-07-06T07:50:38;5.57;;;1.25;;
51499;SDS011;39101;53.478;6.158;2022-07-06T07:53:03;4.03;;;0.90;;
51499;SDS011;39101;53.478;6.158;2022-07-06T07:55:29;3.30;;;0.70;;
51499;SDS011;39101;53.478;6.158;2022-07-06T07:57:55;5.47;;;0.88;;
51499;SDS011;39101;53.478;6.158;2022-07-06T08:00:20;5.38;;;2.05;;
51499;SDS011;39101;53.478;6.158;2022-07-06T08:02:46;4.38;;;1.00;;
51499;SDS011;39101;53.478;6.158;2022-07-06T08:05:12;7.25;;;1.35;;
51499;SDS011;39101;53.478;6.158;2022-07-06T08:07:41;5.78;;;0.90;;
51499;SDS011;39101;53.478;6.158;2022-07-06T08:10:07;6.78;;;0.82;;
51499;SDS011;39101;53.478;6.158;2022-07-06T08:12:33;4.38;;;1.00;;
51499;SDS011;39101;53.478;6.158;2022-07-06T08:14:59;4.28;;;0.85;;
51499;SDS011;39101;53.478;6.158;2022-07-06T08:17:24;6.28;;;0.90;;
51499;SDS011;39101;53.478;6.158;2022-07-06T08:19:50;3.92;;;0.80;;
51499;SDS011;39101;53.478;6.158;2022-07-06T08:22:16;4.50;;;0.90;;
51499;SDS011;39101;53.478;6.158;2022-07-06T08:24:41;5.18;;;0.77;;
51499;SDS011;39101;53.478;6.158;2022-07-06T08:27:07;3.53;;;0.70;;
51499;SDS011;39101;53.478;6.158;2022-07-06T08:29:33;6.57;;;1.45;;
51499;SDS011;39101;53.478;6.158;2022-07-06T08:31:59;5.53;;;0.73;;
51499;SDS011;39101;53.478;6.158;2022-07-06T08:34:24;3.47;;;0.70;;
51499;SDS011;39101;53.478;6.158;2022-07-06T08:36:50;5.90;;;0.90;;
51499;SDS011;39101;53.478;6.158;2022-07-06T08:39:16;3.30;;;0.93;;
51499;SDS011;39101;53.478;6.158;2022-07-06T08:41:42;4.75;;;0.70;;
51499;SDS011;39101;53.478;6.158;2022-07-06T08:44:13;3.15;;;0.80;;
51499;SDS011;39101;53.478;6.158;2022-07-06T08:46:40;4.63;;;0.98;;
51499;SDS011;39101;53.478;6.158;2022-07-06T08:49:06;8.05;;;1.77;;
51499;SDS011;39101;53.478;6.158;2022-07-06T08:51:32;5.68;;;0.80;;
51499;SDS011;39101;53.478;6.158;2022-07-06T08:54:02;4.35;;;1.00;;
51499;SDS011;39101;53.478;6.158;2022-07-06T08:56:28;4.43;;;0.95;;
51499;SDS011;39101;53.478;6.158;2022-07-06T08:58:54;8.82;;;1.38;;
51499;SDS011;39101;53.478;6.158;2022-07-06T09:01:21;3.03;;;0.68;;
51499;SDS011;39101;53.478;6.158;2022-07-06T09:03:48;6.70;;;0.80;;
51499;SDS011;39101;53.478;6.158;2022-07-06T09:06:16;6.90;;;1.10;;
51499;SDS011;39101;53.478;6.158;2022-07-06T09:08:50;6.43;;;0.80;;
51499;SDS011;39101;53.478;6.158;2022-07-06T09:11:19;5.22;;;0.73;;
51499;SDS011;39101;53.478;6.158;2022-07-06T09:13:46;4.00;;;0.70;;
51499;SDS011;39101;53.478;6.158;2022-07-06T09:16:13;7.72;;;1.05;;
51499;SDS011;39101;53.478;6.158;2022-07-06T09:18:41;6.28;;;0.95;;
51499;SDS011;39101;53.478;6.158;2022-07-06T09:21:09;6.27;;;1.13;;
51499;SDS011;39101;53.478;6.158;2022-07-06T09:23:36;8.38;;;1.65;;
51499;SDS011;39101;53.478;6.158;2022-07-06T09:26:03;3.17;;;0.63;;
51499;SDS011;39101;53.478;6.158;2022-07-06T09:28:43;4.10;;;0.90;;
51499;SDS011;39101;53.478;6.158;2022-07-06T09:31:10;3.17;;;0.80;;
51499;SDS011;39101;53.478;6.158;2022-07-06T09:33:37;6.13;;;0.80;;
51499;SDS011;39101;53.478;6.158;2022-07-06T09:36:03;4.78;;;1.15;;
51499;SDS011;39101;53.478;6.158;2022-07-06T09:38:31;5.90;;;0.82;;
51499;SDS011;39101;53.478;6.158;2022-07-06T09:40:56;8.48;;;1.40;;
51499;SDS011;39101;53.478;6.158;2022-07-06T09:43:23;8.15;;;1.02;;
51499;SDS011;39101;53.478;6.158;2022-07-06T09:48:20;5.85;;;0.85;;
51499;SDS011;39101;53.478;6.158;2022-07-06T09:50:48;5.93;;;0.75;;
51499;SDS011;39101;53.478;6.158;2022-07-06T09:53:16;7.72;;;0.88;;
51499;SDS011;39101;53.478;6.158;2022-07-06T09:55:42;4.03;;;1.02;;
51499;SDS011;39101;53.478;6.158;2022-07-06T09:58:09;4.65;;;1.20;;
51499;SDS011;39101;53.478;6.158;2022-07-06T10:00:35;4.18;;;0.90;;
51499;SDS011;39101;53.478;6.158;2022-07-06T10:03:01;4.40;;;1.00;;
51499;SDS011;39101;53.478;6.158;2022-07-06T10:05:27;4.80;;;1.00;;
51499;SDS011;39101;53.478;6.158;2022-07-06T10:07:57;2.97;;;0.93;;
51499;SDS011;39101;53.478;6.158;2022-07-06T10:10:25;4.55;;;0.65;;
51499;SDS011;39101;53.478;6.158;2022-07-06T10:12:53;4.85;;;0.73;;
51499;SDS011;39101;53.478;6.158;2022-07-06T10:15:21;5.03;;;0.77;;
51499;SDS011;39101;53.478;6.158;2022-07-06T10:17:48;3.33;;;0.80;;
51499;SDS011;39101;53.478;6.158;2022-07-06T10:20:17;7.78;;;1.33;;
51499;SDS011;39101;53.478;6.158;2022-07-06T10:22:44;1.67;;;0.60;;
51499;SDS011;39101;53.478;6.158;2022-07-06T10:25:10;2.45;;;0.80;;
51499;SDS011;39101;53.478;6.158;2022-07-06T10:27:36;4.20;;;1.23;;
51499;SDS011;39101;53.478;6.158;2022-07-06T10:30:04;2.78;;;0.60;;
51499;SDS011;39101;53.478;6.158;2022-07-06T10:32:30;4.70;;;0.90;;
51499;SDS011;39101;53.478;6.158;2022-07-06T10:34:56;3.78;;;0.80;;
51499;SDS011;39101;53.478;6.158;2022-07-06T10:37:25;2.28;;;0.70;;
51499;SDS011;39101;53.478;6.158;2022-07-06T10:39:52;3.40;;;1.20;;
51499;SDS011;39101;53.478;6.158;2022-07-06T10:45:06;4.75;;;0.70;;
51499;SDS011;39101;53.478;6.158;2022-07-06T10:47:33;3.33;;;0.65;;
51499;SDS011;39101;53.478;6.158;2022-07-06T10:50:00;3.85;;;0.70;;
51499;SDS011;39101;53.478;6.158;2022-07-06T10:53:12;4.47;;;0.50;;
51499;SDS011;39101;53.478;6.158;2022-07-06T10:55:29;6.82;;;0.70;;
51499;SDS011;39101;53.478;6.158;2022-07-06T10:57:55;3.22;;;0.60;;
51499;SDS011;39101;53.478;6.158;2022-07-06T11:00:21;5.50;;;0.82;;
51499;SDS011;39101;53.478;6.158;2022-07-06T11:02:46;2.50;;;0.60;;
51499;SDS011;39101;53.478;6.158;2022-07-06T11:05:13;3.90;;;0.75;;
51499;SDS011;39101;53.478;6.158;2022-07-06T11:08:10;2.78;;;1.05;;
51499;SDS011;39101;53.478;6.158;2022-07-06T11:10:48;4.75;;;1.10;;
51499;SDS011;39101;53.478;6.158;2022-07-06T11:13:27;5.90;;;1.42;;
51499;SDS011;39101;53.478;6.158;2022-07-06T11:16:00;3.97;;;0.60;;
51499;SDS011;39101;53.478;6.158;2022-07-06T11:18:28;5.28;;;0.70;;
51499;SDS011;39101;53.478;6.158;2022-07-06T11:23:45;4.22;;;1.02;;
51499;SDS011;39101;53.478;6.158;2022-07-06T11:26:13;3.42;;;0.60;;
51499;SDS011;39101;53.478;6.158;2022-07-06T11:28:39;11.10;;;2.10;;
51499;SDS011;39101;53.478;6.158;2022-07-06T11:31:05;3.88;;;0.80;;
51499;SDS011;39101;53.478;6.158;2022-07-06T11:33:31;4.05;;;0.60;;
51499;SDS011;39101;53.478;6.158;2022-07-06T11:36:19;4.53;;;0.70;;
51499;SDS011;39101;53.478;6.158;2022-07-06T11:38:45;2.30;;;0.50;;
51499;SDS011;39101;53.478;6.158;2022-07-06T11:41:12;4.53;;;0.75;;
51499;SDS011;39101;53.478;6.158;2022-07-06T11:43:40;3.90;;;0.60;;
51499;SDS011;39101;53.478;6.158;2022-07-06T11:48:47;4.97;;;0.88;;
51499;SDS011;39101;53.478;6.158;2022-07-06T11:51:14;7.13;;;0.80;;
51499;SDS011;39101;53.478;6.158;2022-07-06T11:53:47;8.48;;;1.15;;
51499;SDS011;39101;53.478;6.158;2022-07-06T11:56:15;4.25;;;0.80;;
51499;SDS011;39101;53.478;6.158;2022-07-06T11:58:43;2.90;;;0.70;;
51499;SDS011;39101;53.478;6.158;2022-07-06T12:01:12;3.88;;;0.80;;
51499;SDS011;39101;53.478;6.158;2022-07-06T12:03:39;3.03;;;1.08;;
51499;SDS011;39101;53.478;6.158;2022-07-06T12:06:06;3.42;;;0.82;;
51499;SDS011;39101;53.478;6.158;2022-07-06T12:08:44;2.67;;;0.70;;
51499;SDS011;39101;53.478;6.158;2022-07-06T12:11:16;4.22;;;0.82;;
51499;SDS011;39101;53.478;6.158;2022-07-06T12:13:53;6.22;;;1.30;;
51499;SDS011;39101;53.478;6.158;2022-07-06T12:16:19;5.40;;;1.20;;
51499;SDS011;39101;53.478;6.158;2022-07-06T12:18:49;4.18;;;1.10;;
51499;SDS011;39101;53.478;6.158;2022-07-06T12:21:16;3.92;;;0.73;;
51499;SDS011;39101;53.478;6.158;2022-07-06T12:23:48;2.53;;;0.80;;
51499;SDS011;39101;53.478;6.158;2022-07-06T12:26:16;5.63;;;1.10;;
51499;SDS011;39101;53.478;6.158;2022-07-06T12:28:59;3.17;;;0.93;;
51499;SDS011;39101;53.478;6.158;2022-07-06T12:31:37;2.20;;;0.68;;
51499;SDS011;39101;53.478;6.158;2022-07-06T12:34:04;1.38;;;0.60;;
51499;SDS011;39101;53.478;6.158;2022-07-06T12:36:31;3.28;;;1.48;;
51499;SDS011;39101;53.478;6.158;2022-07-06T12:39:13;2.60;;;0.70;;
51499;SDS011;39101;53.478;6.158;2022-07-06T12:41:56;3.97;;;0.85;;
51499;SDS011;39101;53.478;6.158;2022-07-06T12:44:28;5.32;;;1.10;;
51499;SDS011;39101;53.478;6.158;2022-07-06T12:47:04;5.68;;;1.00;;
51499;SDS011;39101;53.478;6.158;2022-07-06T12:49:31;6.13;;;1.20;;
51499;SDS011;39101;53.478;6.158;2022-07-06T12:54:45;8.20;;;0.80;;
51499;SDS011;39101;53.478;6.158;2022-07-06T13:02:24;6.93;;;2.05;;
51499;SDS011;39101;53.478;6.158;2022-07-06T13:07:30;8.48;;;1.40;;
51499;SDS011;39101;53.478;6.158;2022-07-06T13:09:57;6.22;;;2.35;;
51499;SDS011;39101;53.478;6.158;2022-07-06T13:12:23;7.18;;;1.55;;
51499;SDS011;39101;53.478;6.158;2022-07-06T13:14:50;9.23;;;1.42;;
51499;SDS011;39101;53.478;6.158;2022-07-06T13:17:16;8.60;;;1.60;;
51499;SDS011;39101;53.478;6.158;2022-07-06T13:19:45;5.55;;;1.80;;
51499;SDS011;39101;53.478;6.158;2022-07-06T13:22:11;5.60;;;1.52;;
51499;SDS011;39101;53.478;6.158;2022-07-06T13:24:37;4.32;;;1.00;;
51499;SDS011;39101;53.478;6.158;2022-07-06T13:27:03;5.90;;;1.83;;
51499;SDS011;39101;53.478;6.158;2022-07-06T13:29:29;7.40;;;2.08;;
51499;SDS011;39101;53.478;6.158;2022-07-06T13:31:55;4.55;;;1.27;;
51499;SDS011;39101;53.478;6.158;2022-07-06T13:34:21;3.13;;;1.30;;
51499;SDS011;39101;53.478;6.158;2022-07-06T13:36:46;8.52;;;1.40;;
51499;SDS011;39101;53.478;6.158;2022-07-06T13:39:12;8.25;;;1.63;;
51499;SDS011;39101;53.478;6.158;2022-07-06T13:41:38;4.90;;;1.40;;
51499;SDS011;39101;53.478;6.158;2022-07-06T13:44:04;6.38;;;1.48;;
51499;SDS011;39101;53.478;6.158;2022-07-06T13:46:30;3.70;;;1.27;;
51499;SDS011;39101;53.478;6.158;2022-07-06T13:48:56;5.07;;;1.00;;
51499;SDS011;39101;53.478;6.158;2022-07-06T13:51:23;3.85;;;1.30;;
51499;SDS011;39101;53.478;6.158;2022-07-06T13:53:51;4.45;;;1.70;;
51499;SDS011;39101;53.478;6.158;2022-07-06T13:56:17;11.77;;;1.48;;
51499;SDS011;39101;53.478;6.158;2022-07-06T13:58:43;6.38;;;1.30;;
51499;SDS011;39101;53.478;6.158;2022-07-06T14:01:09;8.40;;;1.70;;
51499;SDS011;39101;53.478;6.158;2022-07-06T14:03:35;6.32;;;1.70;;
51499;SDS011;39101;53.478;6.158;2022-07-06T14:06:03;9.98;;;2.00;;
51499;SDS011;39101;53.478;6.158;2022-07-06T14:08:32;6.78;;;1.45;;
51499;SDS011;39101;53.478;6.158;2022-07-06T14:10:57;7.97;;;1.98;;
51499;SDS011;39101;53.478;6.158;2022-07-06T14:13:23;8.38;;;2.22;;
51499;SDS011;39101;53.478;6.158;2022-07-06T14:15:49;8.32;;;2.40;;
51499;SDS011;39101;53.478;6.158;2022-07-06T14:18:15;14.15;;;2.42;;
51499;SDS011;39101;53.478;6.158;2022-07-06T14:20:42;9.35;;;2.38;;
51499;SDS011;39101;53.478;6.158;2022-07-06T14:23:12;8.55;;;2.53;;
51499;SDS011;39101;53.478;6.158;2022-07-06T14:25:39;6.60;;;1.85;;
51499;SDS011;39101;53.478;6.158;2022-07-06T14:28:06;8.63;;;2.00;;
51499;SDS011;39101;53.478;6.158;2022-07-06T14:30:32;8.40;;;2.05;;
51499;SDS011;39101;53.478;6.158;2022-07-06T14:32:59;10.98;;;3.47;;
51499;SDS011;39101;53.478;6.158;2022-07-06T14:35:26;9.00;;;2.70;;
51499;SDS011;39101;53.478;6.158;2022-07-06T14:37:52;10.20;;;2.83;;
51499;SDS011;39101;53.478;6.158;2022-07-06T14:40:18;8.50;;;2.72;;
51499;SDS011;39101;53.478;6.158;2022-07-06T14:42:43;7.22;;;1.90;;
51499;SDS011;39101;53.478;6.158;2022-07-06T14:45:09;9.60;;;2.83;;
51499;SDS011;39101;53.478;6.158;2022-07-06T14:47:36;10.43;;;2.70;;
51499;SDS011;39101;53.478;6.158;2022-07-06T14:50:02;12.82;;;2.97;;
51499;SDS011;39101;53.478;6.158;2022-07-06T14:52:28;11.05;;;2.60;;
51499;SDS011;39101;53.478;6.158;2022-07-06T14:54:54;8.80;;;2.38;;
51499;SDS011;39101;53.478;6.158;2022-07-06T14:57:20;9.25;;;2.45;;
51499;SDS011;39101;53.478;6.158;2022-07-06T14:59:45;7.25;;;2.10;;
51499;SDS011;39101;53.478;6.158;2022-07-06T15:02:11;9.55;;;2.45;;
51499;SDS011;39101;53.478;6.158;2022-07-06T15:04:36;7.57;;;1.92;;
51499;SDS011;39101;53.478;6.158;2022-07-06T15:07:02;7.05;;;2.10;;
51499;SDS011;39101;53.478;6.158;2022-07-06T15:09:28;6.60;;;1.98;;